createdAt,value
2018-08-30T00:01:21.211Z,11.90
2018-08-30T00:03:50.888Z,13.13
2018-08-30T00:06:20.599Z,12.97
2018-08-30T00:08:50.243Z,11.37
2018-08-30T00:11:20.148Z,12.57
2018-08-30T00:13:49.874Z,12.43
2018-08-30T00:16:20.069Z,12.90
2018-08-30T00:18:49.895Z,12.67
2018-08-30T00:21:19.657Z,11.50
2018-08-30T00:23:49.480Z,12.67
2018-08-30T00:26:19.302Z,11.23
2018-08-30T00:28:48.950Z,12.20
2018-08-30T00:31:18.649Z,12.60
2018-08-30T00:33:48.357Z,12.80
2018-08-30T00:36:18.091Z,12.00
2018-08-30T00:38:47.776Z,12.93
2018-08-30T00:41:17.580Z,12.77
2018-08-30T00:43:47.299Z,13.00
2018-08-30T00:46:17.079Z,12.30
2018-08-30T00:48:46.807Z,12.20
2018-08-30T00:51:16.566Z,12.57
2018-08-30T00:53:46.384Z,13.50
2018-08-30T00:56:16.279Z,13.23
2018-08-30T00:58:45.991Z,11.57
2018-08-30T01:01:15.709Z,11.03
2018-08-30T01:03:45.392Z,12.40
2018-08-30T01:06:15.168Z,12.67
2018-08-30T01:08:44.913Z,12.73
2018-08-30T01:11:14.608Z,10.53
2018-08-30T01:13:44.402Z,13.13
2018-08-30T01:16:14.073Z,12.50
2018-08-30T01:18:43.755Z,13.33
2018-08-30T01:21:13.231Z,11.73
2018-08-30T01:23:42.682Z,12.33
2018-08-30T01:26:12.138Z,12.73
2018-08-30T01:28:41.611Z,11.53
2018-08-30T01:31:11.035Z,12.10
2018-08-30T01:33:40.493Z,12.83
2018-08-30T01:36:10.022Z,11.47
2018-08-30T01:38:39.417Z,13.13
2018-08-30T01:41:09.160Z,12.60
2018-08-30T01:43:38.590Z,13.03
2018-08-30T01:46:08.019Z,11.83
2018-08-30T01:48:37.473Z,12.53
2018-08-30T01:51:07.003Z,12.50
2018-08-30T01:53:36.502Z,13.07
2018-08-30T01:56:05.962Z,12.77
2018-08-30T01:58:35.464Z,12.80
2018-08-30T02:01:04.854Z,12.43
2018-08-30T02:03:34.245Z,13.70
2018-08-30T02:06:03.622Z,12.33
2018-08-30T02:08:32.995Z,12.80
2018-08-30T02:11:02.478Z,12.50
2018-08-30T02:13:31.849Z,13.50
2018-08-30T02:16:01.262Z,13.27
2018-08-30T02:18:30.657Z,13.77
2018-08-30T02:21:00.027Z,13.00
2018-08-30T02:23:29.436Z,13.40
2018-08-30T02:25:58.888Z,12.90
2018-08-30T02:28:28.278Z,12.97
2018-08-30T02:30:57.627Z,13.63
2018-08-30T02:33:27.054Z,11.73
2018-08-30T02:35:56.503Z,12.07
2018-08-30T02:38:25.874Z,13.47
2018-08-30T02:40:55.292Z,14.07
2018-08-30T02:43:24.699Z,13.20
2018-08-30T02:45:54.110Z,13.80
2018-08-30T02:48:23.640Z,13.93
2018-08-30T02:50:52.992Z,13.27
2018-08-30T02:53:22.391Z,12.77
2018-08-30T02:55:51.785Z,13.93
2018-08-30T02:58:21.159Z,13.37
2018-08-30T03:00:53.530Z,13.93
2018-08-30T03:03:22.931Z,14.33
2018-08-30T03:05:52.336Z,13.33
2018-08-30T03:08:21.718Z,14.17
2018-08-30T03:10:51.212Z,13.90
2018-08-30T03:13:20.597Z,13.63
2018-08-30T03:15:49.986Z,13.10
2018-08-30T03:18:19.394Z,13.97
2018-08-30T03:20:48.801Z,14.50
2018-08-30T03:23:18.179Z,13.60
2018-08-30T03:25:47.852Z,12.43
2018-08-30T03:28:17.258Z,13.80
2018-08-30T03:30:46.790Z,13.07
2018-08-30T03:33:16.147Z,13.07
2018-08-30T03:35:45.557Z,14.90
2018-08-30T03:38:15.018Z,13.60
2018-08-30T03:40:44.473Z,14.00
2018-08-30T03:43:14.199Z,13.50
2018-08-30T03:45:43.578Z,13.27
2018-08-30T03:48:12.986Z,12.77
2018-08-30T03:50:42.596Z,14.67
2018-08-30T03:53:11.954Z,13.50
2018-08-30T03:55:41.406Z,12.97
2018-08-30T03:58:10.806Z,13.33
2018-08-30T04:00:40.224Z,13.20
2018-08-30T04:03:09.625Z,13.53
2018-08-30T04:05:39.016Z,13.63
2018-08-30T04:08:08.361Z,14.57
2018-08-30T04:10:37.923Z,12.97
2018-08-30T04:13:07.281Z,12.47
2018-08-30T04:15:36.691Z,13.17
2018-08-30T04:18:06.189Z,13.40
2018-08-30T04:20:35.590Z,13.97
2018-08-30T04:23:05.057Z,13.40
2018-08-30T04:25:34.644Z,13.07
2018-08-30T04:28:04.028Z,15.43
2018-08-30T04:30:33.446Z,13.30
2018-08-30T04:33:02.888Z,13.60
2018-08-30T04:35:32.287Z,14.90
2018-08-30T04:38:01.666Z,13.93
2018-08-30T04:40:31.295Z,15.33
2018-08-30T04:43:00.645Z,12.20
2018-08-30T04:45:30.127Z,15.80
2018-08-30T04:48:00.009Z,13.80
2018-08-30T04:50:29.382Z,13.20
2018-08-30T04:52:58.770Z,12.60
2018-08-30T04:55:28.199Z,13.20
2018-08-30T04:57:57.580Z,12.90
2018-08-30T05:00:26.996Z,13.97
2018-08-30T05:02:56.359Z,13.33
2018-08-30T05:05:25.823Z,14.27
2018-08-30T05:07:55.378Z,14.70
2018-08-30T05:10:24.803Z,13.03
2018-08-30T05:12:54.223Z,15.10
2018-08-30T05:15:23.643Z,14.20
2018-08-30T05:17:53.243Z,14.50
2018-08-30T05:20:22.631Z,14.80
2018-08-30T05:22:52.018Z,13.50
2018-08-30T05:25:21.419Z,14.70
2018-08-30T05:27:50.749Z,14.03
2018-08-30T05:30:20.140Z,15.60
2018-08-30T05:32:49.526Z,14.53
2018-08-30T05:35:18.893Z,14.60
2018-08-30T05:37:48.291Z,15.80
2018-08-30T05:40:17.702Z,14.20
2018-08-30T05:42:47.073Z,14.90
2018-08-30T05:45:16.458Z,14.70
2018-08-30T05:47:45.901Z,14.10
2018-08-30T05:50:22.090Z,15.73
2018-08-30T05:52:51.664Z,15.53
2018-08-30T05:55:21.035Z,14.63
2018-08-30T05:57:50.443Z,14.10
2018-08-30T06:00:19.946Z,13.80
2018-08-30T06:02:49.338Z,13.27
2018-08-30T06:05:18.698Z,14.23
2018-08-30T06:07:48.142Z,13.50
2018-08-30T06:10:17.506Z,14.27
2018-08-30T06:12:46.911Z,14.70
2018-08-30T06:15:16.329Z,15.47
2018-08-30T06:17:45.744Z,15.13
2018-08-30T06:20:15.099Z,14.17
2018-08-30T06:22:44.502Z,16.50
2018-08-30T06:25:13.890Z,14.70
2018-08-30T06:27:43.280Z,16.13
2018-08-30T06:30:12.890Z,14.40
2018-08-30T06:32:42.365Z,14.73
2018-08-30T06:35:11.750Z,15.67
2018-08-30T06:37:41.146Z,14.77
2018-08-30T06:40:10.607Z,15.07
2018-08-30T06:42:40.068Z,15.87
2018-08-30T06:45:09.524Z,15.63
2018-08-30T06:47:38.966Z,13.57
2018-08-30T06:50:08.365Z,16.23
2018-08-30T06:52:37.818Z,15.00
2018-08-30T06:55:07.255Z,15.20
2018-08-30T06:57:36.661Z,15.70
2018-08-30T07:00:06.559Z,15.10
2018-08-30T07:02:35.938Z,14.60
2018-08-30T07:05:05.538Z,15.43
2018-08-30T07:07:35.002Z,16.80
2018-08-30T07:10:04.443Z,14.60
2018-08-30T07:12:33.850Z,16.30
2018-08-30T07:15:03.543Z,17.30
2018-08-30T07:17:32.906Z,17.53
2018-08-30T07:20:02.303Z,15.03
2018-08-30T07:22:31.990Z,17.23
2018-08-30T07:25:01.347Z,17.47
2018-08-30T07:27:30.736Z,17.77
2018-08-30T07:30:00.134Z,17.40
2018-08-30T07:32:29.506Z,18.50
2018-08-30T07:34:59.042Z,17.57
2018-08-30T07:37:28.294Z,18.17
2018-08-30T07:39:57.657Z,17.20
2018-08-30T07:42:27.047Z,15.83
2018-08-30T07:44:56.455Z,17.60
2018-08-30T07:47:25.810Z,18.33
2018-08-30T07:49:55.370Z,19.03
2018-08-30T07:52:24.852Z,18.03
2018-08-30T07:54:54.235Z,18.87
2018-08-30T07:57:23.706Z,19.30
2018-08-30T07:59:53.275Z,18.57
2018-08-30T08:02:22.594Z,18.40
2018-08-30T08:04:51.988Z,18.30
2018-08-30T08:07:21.495Z,20.00
2018-08-30T08:09:50.855Z,18.73
2018-08-30T08:12:20.347Z,19.00
2018-08-30T08:14:49.766Z,19.90
2018-08-30T08:17:19.214Z,18.00
2018-08-30T08:19:48.656Z,18.80
2018-08-30T08:22:18.381Z,19.77
2018-08-30T08:24:47.828Z,19.33
2018-08-30T08:27:17.186Z,20.43
2018-08-30T08:29:46.798Z,19.90
2018-08-30T08:32:16.247Z,19.20
2018-08-30T08:34:45.670Z,19.37
2018-08-30T08:37:15.086Z,19.77
2018-08-30T08:39:44.577Z,20.93
2018-08-30T08:42:13.991Z,21.87
2018-08-30T08:44:43.440Z,21.37
2018-08-30T08:47:12.943Z,21.43
2018-08-30T08:49:42.432Z,20.97
2018-08-30T08:52:11.827Z,19.33
2018-08-30T08:54:41.224Z,19.30
2018-08-30T08:57:10.623Z,21.33
2018-08-30T08:59:40.332Z,20.23
2018-08-30T09:02:09.739Z,19.53
2018-08-30T09:04:39.139Z,22.43
2018-08-30T09:07:08.629Z,20.57
2018-08-30T09:09:37.979Z,19.17
2018-08-30T09:12:07.407Z,19.77
2018-08-30T09:14:36.830Z,21.43
2018-08-30T09:17:06.287Z,22.57
2018-08-30T09:19:35.665Z,23.17
2018-08-30T09:22:05.910Z,21.10
2018-08-30T09:24:35.288Z,22.00
2018-08-30T09:27:05.044Z,22.40
2018-08-30T09:29:34.383Z,21.67
2018-08-30T09:32:03.778Z,21.87
2018-08-30T09:34:33.189Z,22.47
2018-08-30T09:37:02.623Z,23.40
2018-08-30T09:39:31.987Z,26.00
2018-08-30T09:42:01.346Z,25.37
2018-08-30T09:44:30.806Z,24.10
2018-08-30T09:47:00.178Z,23.30
2018-08-30T09:49:29.640Z,25.10
2018-08-30T09:51:58.966Z,24.90
2018-08-30T09:54:28.551Z,26.30
2018-08-30T09:56:58.031Z,26.57
2018-08-30T09:59:27.363Z,26.70
2018-08-30T10:02:02.167Z,28.47
2018-08-30T10:04:31.694Z,26.50
2018-08-30T10:07:01.067Z,28.40
2018-08-30T10:09:30.469Z,28.10
2018-08-30T10:12:06.371Z,27.27
2018-08-30T10:14:35.697Z,27.97
2018-08-30T10:17:05.071Z,27.90
2018-08-30T10:19:34.453Z,27.83
2018-08-30T10:22:03.881Z,28.37
2018-08-30T10:24:33.266Z,27.83
2018-08-30T10:27:02.660Z,29.10
2018-08-30T10:29:32.067Z,28.60
2018-08-30T10:32:01.447Z,28.50
2018-08-30T10:34:30.874Z,28.00
2018-08-30T10:37:00.295Z,28.07
2018-08-30T10:39:29.602Z,29.17
2018-08-30T10:41:59.063Z,26.23
2018-08-30T10:44:28.587Z,27.97
2018-08-30T10:46:58.075Z,27.07
2018-08-30T10:49:27.643Z,27.40
2018-08-30T10:51:57.028Z,26.37
2018-08-30T10:54:26.463Z,28.03
2018-08-30T10:56:55.870Z,27.80
2018-08-30T10:59:25.303Z,26.03
2018-08-30T11:01:54.738Z,25.30
2018-08-30T11:04:24.257Z,25.37
2018-08-30T11:06:53.558Z,25.20
2018-08-30T11:09:22.944Z,23.53
2018-08-30T11:11:52.359Z,26.53
2018-08-30T11:14:21.783Z,24.83
2018-08-30T11:16:51.186Z,25.23
2018-08-30T11:19:20.590Z,25.80
2018-08-30T11:21:49.968Z,26.33
2018-08-30T11:24:19.354Z,25.37
2018-08-30T11:26:48.734Z,25.70
2018-08-30T11:29:18.121Z,24.10
2018-08-30T11:31:47.579Z,26.00
2018-08-30T11:34:16.978Z,25.73
2018-08-30T11:36:46.414Z,24.50
2018-08-30T11:39:15.778Z,23.57
2018-08-30T11:41:45.496Z,24.10
2018-08-30T11:44:14.909Z,19.80
2018-08-30T11:46:44.480Z,21.63
2018-08-30T11:49:13.881Z,18.97
2018-08-30T11:51:43.391Z,16.80
2018-08-30T11:54:12.814Z,14.87
2018-08-30T11:56:42.211Z,15.30
2018-08-30T11:59:11.790Z,12.70
2018-08-30T12:01:41.430Z,11.87
2018-08-30T12:04:11.349Z,10.30
2018-08-30T12:06:40.803Z,9.47
2018-08-30T12:09:10.944Z,9.63
2018-08-30T12:11:41.697Z,9.17
2018-08-30T12:14:11.056Z,8.50
2018-08-30T12:16:40.478Z,7.87
2018-08-30T12:19:09.921Z,8.50
2018-08-30T12:21:39.334Z,8.57
2018-08-30T12:24:08.722Z,8.80
2018-08-30T12:26:38.227Z,8.90
2018-08-30T12:29:07.748Z,9.60
2018-08-30T12:31:37.188Z,10.50
2018-08-30T12:34:07.176Z,9.07
2018-08-30T12:36:36.614Z,9.60
2018-08-30T12:39:08.871Z,10.33
2018-08-30T12:41:38.212Z,9.03
2018-08-30T12:44:07.698Z,10.07
2018-08-30T12:46:37.150Z,11.00
2018-08-30T12:49:06.639Z,11.30
2018-08-30T12:51:36.185Z,12.13
2018-08-30T12:54:05.631Z,12.33
2018-08-30T12:56:35.137Z,13.17
2018-08-30T12:59:09.900Z,11.20
2018-08-30T13:01:39.269Z,13.50
2018-08-30T13:04:08.912Z,13.60
2018-08-30T13:06:42.511Z,12.07
2018-08-30T13:09:12.291Z,12.10
2018-08-30T13:11:41.683Z,12.70
2018-08-30T13:14:11.274Z,13.07
2018-08-30T13:16:40.944Z,14.50
2018-08-30T13:19:10.546Z,12.13
2018-08-30T13:21:39.849Z,11.57
2018-08-30T13:24:09.259Z,12.53
2018-08-30T13:26:38.777Z,10.87
2018-08-30T13:29:08.369Z,10.77
2018-08-30T13:31:37.674Z,11.23
2018-08-30T13:34:07.150Z,10.57
2018-08-30T13:36:36.549Z,12.03
2018-08-30T13:39:09.682Z,11.73
2018-08-30T13:41:39.258Z,12.10
2018-08-30T13:44:09.983Z,11.57
2018-08-30T13:46:40.368Z,11.90
2018-08-30T13:49:10.581Z,11.70
2018-08-30T13:51:39.935Z,11.17
2018-08-30T13:54:09.432Z,10.70
2018-08-30T13:56:38.803Z,10.93
2018-08-30T13:59:08.470Z,10.50
2018-08-30T14:01:37.887Z,10.37
2018-08-30T14:04:06.988Z,10.10
2018-08-30T14:06:36.281Z,11.37
2018-08-30T14:09:06.462Z,10.67
2018-08-30T14:11:35.984Z,11.10
2018-08-30T14:14:05.310Z,12.17
2018-08-30T14:16:34.359Z,10.47
2018-08-30T14:19:03.868Z,10.27
2018-08-30T14:21:33.327Z,11.63
2018-08-30T14:24:02.885Z,12.93
2018-08-30T14:26:32.249Z,12.13
2018-08-30T14:29:01.742Z,12.93
2018-08-30T14:31:31.025Z,11.80
2018-08-30T14:34:00.422Z,12.73
2018-08-30T14:36:29.842Z,12.50
2018-08-30T14:38:59.291Z,13.40
2018-08-30T14:41:28.770Z,13.20
2018-08-30T14:43:58.015Z,22.00
2018-08-30T14:46:27.401Z,32.60
2018-08-30T14:48:56.775Z,13.70
2018-08-30T14:51:32.805Z,13.20
2018-08-30T14:54:08.889Z,12.40
2018-08-30T14:56:38.073Z,11.20
2018-08-30T14:59:07.682Z,11.40
2018-08-30T15:01:36.922Z,12.50
2018-08-30T15:04:06.295Z,11.70
2018-08-30T15:06:35.684Z,11.90
2018-08-30T15:09:06.834Z,12.87
2018-08-30T15:11:36.387Z,11.80
2018-08-30T15:14:05.862Z,12.20
2018-08-30T15:16:35.283Z,12.17
2018-08-30T15:19:04.729Z,11.70
2018-08-30T15:21:34.107Z,12.50
2018-08-30T15:24:03.564Z,12.20
2018-08-30T15:26:32.960Z,10.77
2018-08-30T15:29:02.537Z,11.30
2018-08-30T15:31:31.921Z,11.00
2018-08-30T15:34:01.467Z,10.77
2018-08-30T15:36:30.798Z,11.07
2018-08-30T15:39:00.318Z,10.83
2018-08-30T15:41:29.716Z,11.70
2018-08-30T15:43:59.122Z,12.00
2018-08-30T15:46:28.515Z,12.00
2018-08-30T15:48:58.106Z,11.93
2018-08-30T15:51:27.323Z,13.07
2018-08-30T15:53:56.777Z,12.17
2018-08-30T15:56:26.329Z,12.20
2018-08-30T15:58:55.717Z,12.53
2018-08-30T16:01:25.086Z,12.70
2018-08-30T16:03:54.458Z,11.83
2018-08-30T16:06:23.840Z,12.20
2018-08-30T16:08:53.240Z,11.97
2018-08-30T16:11:22.808Z,12.90
2018-08-30T16:13:52.081Z,12.13
2018-08-30T16:16:21.454Z,12.27
2018-08-30T16:18:51.001Z,11.77
2018-08-30T16:21:20.192Z,11.90
2018-08-30T16:23:50.491Z,11.47
2018-08-30T16:26:19.916Z,10.93
2018-08-30T16:28:49.287Z,11.10
2018-08-30T16:31:18.720Z,10.80
2018-08-30T16:33:48.149Z,12.00
2018-08-30T16:36:19.303Z,12.63
2018-08-30T16:38:48.696Z,11.17
2018-08-30T16:41:18.283Z,9.90
2018-08-30T16:43:47.443Z,10.77
2018-08-30T16:46:16.849Z,11.37
2018-08-30T16:48:46.269Z,10.90
2018-08-30T16:51:15.618Z,11.13
2018-08-30T16:53:45.022Z,11.10
2018-08-30T16:56:14.531Z,10.37
2018-08-30T16:58:43.908Z,10.20
2018-08-30T17:01:13.314Z,10.60
2018-08-30T17:03:42.841Z,11.53
2018-08-30T17:06:12.197Z,11.10
2018-08-30T17:08:41.889Z,9.27
2018-08-30T17:11:11.242Z,9.60
2018-08-30T17:13:40.610Z,8.53
2018-08-30T17:16:10.059Z,8.73
2018-08-30T17:18:40.073Z,8.10
2018-08-30T17:21:09.559Z,8.60
2018-08-30T17:23:38.904Z,6.50
2018-08-30T17:26:08.287Z,6.30
2018-08-30T17:28:37.774Z,6.83
2018-08-30T17:31:07.332Z,6.00
2018-08-30T17:33:36.706Z,6.80
2018-08-30T17:36:07.782Z,6.80
2018-08-30T17:38:38.522Z,7.07
2018-08-30T17:41:07.979Z,6.83
2018-08-30T17:43:37.411Z,8.30
2018-08-30T17:46:06.876Z,8.50
2018-08-30T17:48:36.300Z,8.80
2018-08-30T17:51:05.763Z,9.80
2018-08-30T17:53:35.302Z,10.40
2018-08-30T17:56:04.964Z,11.93
2018-08-30T17:58:34.265Z,11.30
2018-08-30T18:01:03.660Z,13.50
2018-08-30T18:03:33.124Z,12.73
2018-08-30T18:06:02.578Z,13.30
2018-08-30T18:08:32.035Z,13.27
2018-08-30T18:11:01.989Z,13.27
2018-08-30T18:13:31.414Z,11.20
2018-08-30T18:16:00.876Z,11.97
2018-08-30T18:18:30.339Z,11.10
2018-08-30T18:20:59.757Z,11.07
2018-08-30T18:23:29.198Z,10.30
2018-08-30T18:25:58.598Z,10.57
2018-08-30T18:28:27.974Z,10.70
2018-08-30T18:30:57.477Z,9.77
2018-08-30T18:33:26.870Z,8.83
2018-08-30T18:35:56.314Z,9.10
2018-08-30T18:38:25.899Z,9.90
2018-08-30T18:40:55.326Z,10.83
2018-08-30T18:43:24.846Z,10.43
2018-08-30T18:45:54.262Z,10.10
2018-08-30T18:48:23.754Z,9.17
2018-08-30T18:50:53.157Z,11.60
2018-08-30T18:53:22.719Z,20.90
2018-08-30T18:55:52.294Z,11.17
2018-08-30T18:58:21.730Z,11.67
2018-08-30T19:00:51.224Z,10.83
2018-08-30T19:03:20.804Z,11.97
2018-08-30T19:05:50.262Z,11.83
2018-08-30T19:08:19.670Z,12.57
2018-08-30T19:10:49.074Z,10.90
2018-08-30T19:13:18.494Z,11.00
2018-08-30T19:15:53.372Z,11.30
2018-08-30T19:18:28.080Z,10.40
2018-08-30T19:20:58.112Z,10.60
2018-08-30T19:23:27.474Z,9.60
2018-08-30T19:25:56.906Z,9.53
2018-08-30T19:28:26.338Z,9.67
2018-08-30T19:30:55.765Z,9.20
2018-08-30T19:33:25.358Z,8.27
2018-08-30T19:36:58.751Z,8.23
2018-08-30T19:39:28.199Z,9.60
2018-08-30T19:41:57.662Z,9.53
2018-08-30T19:44:27.425Z,8.50
2018-08-30T19:46:56.830Z,7.50
2018-08-30T19:49:26.234Z,8.07
2018-08-30T19:51:55.646Z,8.13
2018-08-30T19:54:25.082Z,9.20
2018-08-30T19:56:54.649Z,8.20
2018-08-30T19:59:24.339Z,7.47
2018-08-30T20:02:25.005Z,7.60
2018-08-30T20:04:54.367Z,7.67
2018-08-30T20:07:23.807Z,7.33
2018-08-30T20:09:53.168Z,7.67
2018-08-30T20:12:22.657Z,6.70
2018-08-30T20:14:52.130Z,6.60
2018-08-30T20:17:21.634Z,7.50
2018-08-30T20:19:51.197Z,7.20
2018-08-30T20:22:20.691Z,7.60
2018-08-30T20:24:50.062Z,7.40
2018-08-30T20:27:19.611Z,7.70
2018-08-30T20:29:49.096Z,6.23
2018-08-30T20:32:18.716Z,7.80
2018-08-30T20:34:48.484Z,7.17
2018-08-30T20:37:17.927Z,7.20
2018-08-30T20:39:47.646Z,7.07
2018-08-30T20:42:17.051Z,7.67
2018-08-30T20:44:46.422Z,6.20
2018-08-30T20:47:15.921Z,5.97
2018-08-30T20:49:45.456Z,6.00
2018-08-30T20:52:14.938Z,6.23
2018-08-30T20:54:44.474Z,6.77
2018-08-30T20:57:14.415Z,5.90
2018-08-30T20:59:43.821Z,6.40
2018-08-30T21:02:13.479Z,6.03
2018-08-30T21:04:42.890Z,6.47
2018-08-30T21:07:12.284Z,5.60
2018-08-30T21:09:41.658Z,5.90
2018-08-30T21:12:11.057Z,6.50
2018-08-30T21:14:40.403Z,6.47
2018-08-30T21:17:09.791Z,7.50
2018-08-30T21:19:40.165Z,7.20
2018-08-30T21:22:09.603Z,5.53
2018-08-30T21:24:38.983Z,6.70
2018-08-30T21:27:08.378Z,6.30
2018-08-30T21:29:37.755Z,9.00
2018-08-30T21:32:07.210Z,8.00
2018-08-30T21:34:36.578Z,8.60
2018-08-30T21:37:06.179Z,6.80
2018-08-30T21:39:35.729Z,5.50
2018-08-30T21:42:05.145Z,5.27
2018-08-30T21:44:34.564Z,6.07
2018-08-30T21:47:04.004Z,4.50
2018-08-30T21:49:33.451Z,6.17
2018-08-30T21:52:02.838Z,4.60
2018-08-30T21:54:32.275Z,5.50
2018-08-30T21:57:01.822Z,8.57
2018-08-30T21:59:31.224Z,5.87
2018-08-30T22:02:00.795Z,5.10
2018-08-30T22:04:30.677Z,4.97
2018-08-30T22:07:00.040Z,4.77
2018-08-30T22:09:29.415Z,5.87
2018-08-30T22:11:58.847Z,4.50
2018-08-30T22:14:28.257Z,5.20
2018-08-30T22:16:57.619Z,5.23
2018-08-30T22:19:27.015Z,4.10
2018-08-30T22:21:56.424Z,4.63
2018-08-30T22:24:25.901Z,6.77
2018-08-30T22:26:55.279Z,5.77
2018-08-30T22:29:24.659Z,3.87
2018-08-30T22:31:54.041Z,4.30
2018-08-30T22:34:23.490Z,3.93
2018-08-30T22:36:52.864Z,3.40
2018-08-30T22:39:22.245Z,3.77
2018-08-30T22:41:51.647Z,3.77
2018-08-30T22:44:21.037Z,3.60
2018-08-30T22:46:50.413Z,4.80
2018-08-30T22:49:19.829Z,3.00
2018-08-30T22:51:49.278Z,3.60
2018-08-30T22:54:18.718Z,3.47
2018-08-30T22:56:48.142Z,4.53
2018-08-30T22:59:17.531Z,2.60
2018-08-30T23:01:46.915Z,3.47
2018-08-30T23:04:16.402Z,3.27
2018-08-30T23:06:45.939Z,2.90
2018-08-30T23:09:15.238Z,2.50
2018-08-30T23:11:44.622Z,2.97
2018-08-30T23:14:14.074Z,3.03
2018-08-30T23:16:43.434Z,2.90
2018-08-30T23:19:12.819Z,3.17
2018-08-30T23:21:42.204Z,2.53
2018-08-30T23:24:11.651Z,2.80
2018-08-30T23:26:41.105Z,2.77
2018-08-30T23:29:10.493Z,2.90
2018-08-30T23:31:40.039Z,3.07
2018-08-30T23:34:09.633Z,2.53
2018-08-30T23:36:39.260Z,3.33
2018-08-30T23:39:10.980Z,3.23
2018-08-30T23:41:40.406Z,3.33
2018-08-30T23:44:10.215Z,3.30
2018-08-30T23:46:39.946Z,2.77
2018-08-30T23:49:09.309Z,2.77
2018-08-30T23:51:38.665Z,2.20
2018-08-30T23:54:08.447Z,2.80
2018-08-30T23:56:38.011Z,2.47
2018-08-30T23:59:24.546Z,4.60
